Monaville, Texas
Current Conditions -  °F | °C
As of 10:55 AM on Thursday 30 Oct 2014 (Local Time) from K11R Reporting Station
Clear Clear  
Wind Chill: 70°   Ceiling: Unl
Heat Index: 70°   Visibility: 10mi
Dew Point: 48°   Wind: 8mph
Humidity: 46%   Direction: 80°E
Pressure: 30.17"   Gusts: NA
Location:  30.0877°N, 96.0805°W
Report Text: K11R 301555Z AUTO 08007KT 10SM CLR 21/09 A3017 RMK AO2 T02110091
Loading
Personal Weather Stations






























Interactive Weather Map
Tropical Storm Tracking
New forecast layout! Learn more

10-Day Weather Forecast

Advertisements
Track Severe Weather on mobile